Time;durP1;ratioP1;P1;durP2;ratioP2;P2;SDS_P1;SDS_P2;PMS_P1;PMS_P2;Temp;Humidity;BMP_temperature;BMP_pressure;BME280_temperature;BME280_humidity;BME280_pressure;Samples;Min_cycle;Max_cycle;Signal;HPM_P1;HPM_P2
2023/04/16 00:02:14;;;;;;;26.80;16.77;;;8.50;99.90;;;;;;5040045;28;20245;-82
2023/04/16 00:04:40;;;;;;;31.23;16.93;;;8.50;99.90;;;;;;5040722;28;20196;-82
2023/04/16 00:07:06;;;;;;;26.30;15.63;;;8.50;99.90;;;;;;5041930;28;20168;-82
2023/04/16 00:09:31;;;;;;;21.53;15.40;;;8.50;99.90;;;;;;5042747;28;20165;-82
2023/04/16 00:11:57;;;;;;;27.57;15.23;;;8.60;99.90;;;;;;5040249;28;20207;-82
2023/04/16 00:14:22;;;;;;;20.10;13.13;;;8.60;99.90;;;;;;5042019;28;20188;-82
2023/04/16 00:16:48;;;;;;;20.80;12.47;;;8.60;99.90;;;;;;5042211;28;20199;-82
2023/04/16 00:19:13;;;;;;;21.83;12.80;;;8.60;99.90;;;;;;5042069;28;20170;-82
2023/04/16 00:21:39;;;;;;;23.40;13.67;;;8.60;99.90;;;;;;5041018;28;20176;-82
2023/04/16 00:24:04;;;;;;;20.30;12.33;;;8.60;99.90;;;;;;5041581;28;20601;-82
2023/04/16 00:26:30;;;;;;;26.50;13.30;;;8.60;99.90;;;;;;5040809;28;20207;-82
2023/04/16 00:28:55;;;;;;;30.57;14.90;;;8.60;99.90;;;;;;5047947;28;20211;-83
2023/04/16 00:31:32;;;;;;;27.57;15.10;;;8.60;99.90;;;;;;5055842;28;20200;-82
2023/04/16 00:33:58;;;;;;;38.83;18.47;;;8.60;99.90;;;;;;5051991;28;20192;-82
2023/04/16 00:36:24;;;;;;;27.57;17.07;;;8.60;99.90;;;;;;5039352;28;20271;-82
2023/04/16 00:38:50;;;;;;;29.43;15.50;;;8.60;99.90;;;;;;5039110;28;20172;-82
2023/04/16 00:41:16;;;;;;;25.63;15.17;;;8.60;99.90;;;;;;5037685;28;20183;-82
2023/04/16 00:43:41;;;;;;;22.13;12.13;;;8.60;99.90;;;;;;5040235;28;20222;-82
2023/04/16 00:46:07;;;;;;;23.10;13.37;;;8.60;99.90;;;;;;5041285;28;20165;-83
2023/04/16 00:48:35;;;;;;;22.63;14.17;;;8.60;99.90;;;;;;5039543;28;20176;-82
2023/04/16 00:51:03;;;;;;;24.97;14.50;;;8.60;99.90;;;;;;5040720;28;20275;-82
2023/04/16 00:53:29;;;;;;;26.10;13.73;;;8.60;99.90;;;;;;5041213;28;20192;-82
2023/04/16 00:55:56;;;;;;;20.57;14.37;;;8.60;99.90;;;;;;5040405;28;20164;-82
2023/04/16 00:58:22;;;;;;;23.47;14.37;;;8.60;99.90;;;;;;5038886;28;20202;-82
2023/04/16 01:00:48;;;;;;;23.13;13.90;;;8.60;99.90;;;;;;5039840;28;20183;-82
2023/04/16 01:03:13;;;;;;;24.53;14.37;;;8.70;99.90;;;;;;5038721;28;20196;-82
2023/04/16 01:05:39;;;;;;;24.80;14.53;;;8.60;99.90;;;;;;5040204;28;20619;-83
2023/04/16 01:08:05;;;;;;;24.77;14.90;;;8.60;99.90;;;;;;5040775;28;20250;-82
2023/04/16 01:10:30;;;;;;;25.83;15.87;;;8.70;99.90;;;;;;5040515;28;20626;-82
2023/04/16 01:12:56;;;;;;;30.13;17.03;;;8.70;99.90;;;;;;5040279;28;20226;-82
2023/04/16 01:15:22;;;;;;;35.90;18.17;;;8.70;99.90;;;;;;5040029;28;20203;-82
2023/04/16 01:17:47;;;;;;;31.83;17.17;;;8.60;99.90;;;;;;5038738;28;20172;-83
2023/04/16 01:20:13;;;;;;;31.23;17.20;;;8.60;99.90;;;;;;5038105;28;20207;-82
2023/04/16 01:22:39;;;;;;;34.57;18.90;;;8.60;99.90;;;;;;5038502;28;20172;-82
2023/04/16 01:25:05;;;;;;;34.83;19.10;;;8.80;99.90;;;;;;5038481;28;20318;-82
2023/04/16 01:27:31;;;;;;;34.20;17.10;;;8.70;99.90;;;;;;5039805;28;20180;-83
2023/04/16 01:29:57;;;;;;;34.60;18.17;;;8.60;99.90;;;;;;5039481;28;20172;-82
2023/04/16 01:32:22;;;;;;;26.63;18.70;;;8.60;99.90;;;;;;5039038;28;20218;-82
2023/04/16 01:34:48;;;;;;;32.20;18.77;;;8.60;99.90;;;;;;5037397;28;20751;-82
2023/04/16 01:37:13;;;;;;;32.40;17.63;;;8.60;99.90;;;;;;5038564;28;20672;-82
2023/04/16 01:39:39;;;;;;;31.47;17.43;;;8.60;99.90;;;;;;5037555;28;20171;-83
2023/04/16 01:42:04;;;;;;;35.10;16.60;;;8.60;99.90;;;;;;5037747;28;20187;-82
2023/04/16 01:44:30;;;;;;;35.50;17.57;;;8.60;99.90;;;;;;5039294;28;20188;-82
2023/04/16 01:46:56;;;;;;;28.80;16.10;;;8.60;99.90;;;;;;5037526;28;20176;-83
2023/04/16 01:49:22;;;;;;;33.53;16.50;;;8.60;99.90;;;;;;5039695;28;20176;-83
2023/04/16 01:51:47;;;;;;;37.33;16.30;;;8.60;99.90;;;;;;5038507;28;20255;-84
2023/04/16 01:54:13;;;;;;;31.97;18.33;;;8.60;99.90;;;;;;5037986;28;20227;-83
2023/04/16 01:56:39;;;;;;;31.30;17.00;;;8.60;99.90;;;;;;5039658;28;20184;-83
2023/04/16 01:59:04;;;;;;;33.27;16.00;;;8.60;99.90;;;;;;5038853;28;20176;-82
2023/04/16 02:01:30;;;;;;;31.73;16.43;;;8.60;99.90;;;;;;5038399;28;20192;-83
2023/04/16 02:03:56;;;;;;;32.07;16.57;;;8.60;99.90;;;;;;5036465;28;20219;-82
2023/04/16 02:06:22;;;;;;;33.57;17.23;;;8.60;99.90;;;;;;5037285;28;20262;-83
2023/04/16 02:08:47;;;;;;;31.37;15.50;;;8.60;99.90;;;;;;5038461;28;20249;-82
2023/04/16 02:11:13;;;;;;;31.07;14.93;;;8.60;99.90;;;;;;5037217;28;20211;-83
2023/04/16 02:13:40;;;;;;;25.83;14.40;;;8.50;99.90;;;;;;5037715;28;20390;-82
2023/04/16 02:16:05;;;;;;;35.67;16.60;;;8.60;99.90;;;;;;5037602;28;20203;-83
2023/04/16 02:18:31;;;;;;;33.40;17.17;;;8.50;99.90;;;;;;5037455;28;20330;-82
2023/04/16 02:20:58;;;;;;;33.40;16.30;;;8.60;99.90;;;;;;5039172;28;20177;-82
2023/04/16 02:23:24;;;;;;;33.97;17.20;;;8.60;99.90;;;;;;5037702;28;20200;-82
2023/04/16 02:25:50;;;;;;;36.83;19.30;;;8.60;99.90;;;;;;5037505;28;20255;-82
2023/04/16 02:28:16;;;;;;;35.77;19.47;;;8.60;99.90;;;;;;5037623;28;20172;-82
2023/04/16 02:30:42;;;;;;;37.73;19.73;;;8.60;99.90;;;;;;5037305;28;20200;-82
2023/04/16 02:33:09;;;;;;;35.47;20.03;;;8.60;99.90;;;;;;5037266;28;20246;-82
2023/04/16 02:35:36;;;;;;;37.20;18.53;;;8.50;99.90;;;;;;5038588;28;20339;-82
2023/04/16 02:38:03;;;;;;;37.33;18.60;;;8.60;99.90;;;;;;5037191;28;20557;-82
2023/04/16 02:40:29;;;;;;;36.47;17.80;;;8.60;99.90;;;;;;5039055;28;20180;-82
2023/04/16 02:42:55;;;;;;;33.87;18.20;;;8.60;99.90;;;;;;5038779;28;20228;-82
2023/04/16 02:45:23;;;;;;;29.83;18.00;;;8.60;99.90;;;;;;5038669;28;20544;-82
2023/04/16 02:47:49;;;;;;;39.87;19.90;;;8.60;99.90;;;;;;5037496;28;20663;-82
2023/04/16 02:50:15;;;;;;;38.87;20.23;;;8.60;99.90;;;;;;5038505;28;20200;-82
2023/04/16 02:52:41;;;;;;;36.33;20.93;;;8.60;99.90;;;;;;5039238;28;20172;-82
2023/04/16 02:55:07;;;;;;;38.37;19.93;;;8.60;99.90;;;;;;5039184;28;20171;-82
2023/04/16 02:57:32;;;;;;;35.30;19.17;;;8.60;99.90;;;;;;5037706;28;20173;-82
2023/04/16 02:59:58;;;;;;;38.70;20.60;;;8.60;99.90;;;;;;5038162;28;20177;-82
2023/04/16 03:02:24;;;;;;;43.37;23.23;;;8.60;99.90;;;;;;5039060;28;20187;-82
2023/04/16 03:04:49;;;;;;;34.60;21.93;;;8.60;99.90;;;;;;5042582;28;20248;-83
2023/04/16 03:07:17;;;;;;;36.50;21.57;;;8.60;99.90;;;;;;5042744;28;20180;-82
2023/04/16 03:09:43;;;;;;;34.73;20.47;;;8.60;99.90;;;;;;5042354;28;20244;-83
2023/04/16 03:12:08;;;;;;;44.77;20.50;;;8.60;99.90;;;;;;5043409;28;20660;-83
2023/04/16 03:14:34;;;;;;;39.80;24.33;;;8.60;99.90;;;;;;5042786;28;20231;-82
2023/04/16 03:16:59;;;;;;;42.00;23.87;;;8.60;99.90;;;;;;5043642;28;20169;-82
2023/04/16 03:19:25;;;;;;;41.27;23.80;;;8.60;99.90;;;;;;5042945;28;20513;-82
2023/04/16 03:21:51;;;;;;;41.20;23.37;;;8.60;99.90;;;;;;5043767;28;20176;-82
2023/04/16 03:24:16;;;;;;;45.97;24.00;;;8.60;99.90;;;;;;5042866;28;20204;-82
2023/04/16 03:26:42;;;;;;;43.70;24.20;;;8.60;99.90;;;;;;5043268;28;20267;-82
2023/04/16 03:29:07;;;;;;;44.10;24.57;;;8.60;99.90;;;;;;5047193;28;20169;-82
2023/04/16 03:31:33;;;;;;;44.40;25.67;;;8.60;99.90;;;;;;5058047;28;20204;-82
2023/04/16 03:33:58;;;;;;;45.43;26.17;;;8.70;99.90;;;;;;5055754;28;20200;-83
2023/04/16 03:36:25;;;;;;;46.23;27.10;;;8.70;99.90;;;;;;5045025;28;20227;-83
2023/04/16 03:38:51;;;;;;;46.43;25.03;;;8.60;99.90;;;;;;5041606;28;20644;-84
2023/04/16 03:41:17;;;;;;;48.87;25.20;;;8.60;99.90;;;;;;5038985;28;20195;-83
2023/04/16 03:43:42;;;;;;;44.97;24.27;;;8.70;99.90;;;;;;5039544;28;20196;-83
2023/04/16 03:46:08;;;;;;;46.27;25.93;;;8.70;99.90;;;;;;5038634;28;20616;-83
2023/04/16 03:48:33;;;;;;;43.13;24.13;;;8.70;99.90;;;;;;5041095;28;20184;-83
2023/04/16 03:50:59;;;;;;;50.27;24.37;;;8.70;99.90;;;;;;5041205;28;20200;-83
2023/04/16 03:53:25;;;;;;;45.90;24.67;;;8.70;99.90;;;;;;5039301;28;20196;-83
2023/04/16 03:55:51;;;;;;;41.67;22.73;;;8.70;99.90;;;;;;5040634;28;20584;-83
2023/04/16 03:58:17;;;;;;;38.30;22.70;;;8.70;99.90;;;;;;5041828;28;20223;-83
2023/04/16 04:00:43;;;;;;;39.43;21.20;;;8.70;99.90;;;;;;5041746;28;20552;-83
2023/04/16 04:03:09;;;;;;;36.10;21.00;;;8.70;99.90;;;;;;5041275;28;20207;-83
2023/04/16 04:05:40;;;;;;;40.23;20.60;;;8.70;99.90;;;;;;5039621;28;20206;-83
2023/04/16 04:08:06;;;;;;;38.53;23.27;;;8.70;99.90;;;;;;5041074;28;20168;-82
2023/04/16 04:10:32;;;;;;;47.63;24.83;;;8.70;99.90;;;;;;5040702;28;20522;-83
2023/04/16 04:12:58;;;;;;;44.37;23.50;;;8.60;99.90;;;;;;5040028;28;20211;-83
2023/04/16 04:15:24;;;;;;;39.07;22.40;;;8.70;99.90;;;;;;5039218;28;20180;-83
2023/04/16 04:17:49;;;;;;;52.03;24.87;;;8.70;99.90;;;;;;5042706;28;20179;-83
2023/04/16 04:20:15;;;;;;;42.63;24.10;;;8.70;99.90;;;;;;5040137;28;20203;-83
2023/04/16 04:22:41;;;;;;;46.67;25.20;;;8.70;99.90;;;;;;5039753;28;20189;-83
2023/04/16 04:25:08;;;;;;;48.93;24.63;;;8.70;99.90;;;;;;5040177;28;20177;-83
2023/04/16 04:27:34;;;;;;;45.63;24.00;;;8.70;99.90;;;;;;5040631;28;20263;-83
2023/04/16 04:29:59;;;;;;;42.43;22.83;;;8.70;99.90;;;;;;5038958;28;20208;-83
2023/04/16 04:32:25;;;;;;;49.63;24.73;;;8.80;99.90;;;;;;5039091;28;20202;-83
2023/04/16 04:34:50;;;;;;;47.17;25.27;;;8.80;99.90;;;;;;5040793;28;20196;-83
2023/04/16 04:37:16;;;;;;;50.03;24.67;;;8.70;99.90;;;;;;5041728;28;20265;-83
2023/04/16 04:39:41;;;;;;;47.93;23.67;;;8.80;99.90;;;;;;5041447;28;20567;-83
2023/04/16 04:42:08;;;;;;;46.20;23.63;;;8.80;99.90;;;;;;5039116;28;20176;-83
2023/04/16 04:44:33;;;;;;;44.90;23.67;;;8.80;99.90;;;;;;5041342;28;20230;-83
2023/04/16 04:46:59;;;;;;;47.03;23.53;;;8.80;99.90;;;;;;5040749;28;20180;-83
2023/04/16 04:49:24;;;;;;;48.67;24.30;;;8.80;99.90;;;;;;5039803;28;20238;-83
2023/04/16 04:51:50;;;;;;;48.93;25.43;;;8.80;99.90;;;;;;5040484;28;20204;-84
2023/04/16 04:54:16;;;;;;;50.33;25.97;;;8.80;99.90;;;;;;5039863;28;20683;-84
2023/04/16 04:56:44;;;;;;;53.17;27.50;;;8.80;99.90;;;;;;5040774;28;20259;-84
2023/04/16 04:59:10;;;;;;;53.77;26.80;;;8.80;99.90;;;;;;5039500;28;20667;-84
2023/04/16 05:01:35;;;;;;;47.77;25.10;;;8.80;99.90;;;;;;5039373;28;20655;-83
2023/04/16 05:04:01;;;;;;;50.40;25.60;;;8.80;99.90;;;;;;5039871;28;20200;-83
2023/04/16 05:06:27;;;;;;;45.20;24.67;;;8.80;99.90;;;;;;5039435;28;20179;-84
2023/04/16 05:08:52;;;;;;;47.87;25.17;;;8.80;99.90;;;;;;5040165;28;20172;-83
2023/04/16 05:11:18;;;;;;;50.93;26.50;;;8.80;99.90;;;;;;5038967;28;20204;-83
2023/04/16 05:13:43;;;;;;;51.67;25.90;;;8.80;99.90;;;;;;5041330;28;20192;-83
2023/04/16 05:16:09;;;;;;;53.03;26.23;;;8.80;99.90;;;;;;5041625;28;20507;-83
2023/04/16 05:18:35;;;;;;;51.03;25.47;;;8.80;99.90;;;;;;5039158;28;20172;-83
2023/04/16 05:21:00;;;;;;;52.00;26.00;;;8.90;99.90;;;;;;5039218;28;20183;-84
2023/04/16 05:23:26;;;;;;;40.80;25.03;;;8.80;99.90;;;;;;5039234;28;20279;-83
2023/04/16 05:25:52;;;;;;;44.97;24.90;;;8.80;99.90;;;;;;5037968;28;20678;-84
2023/04/16 05:28:17;;;;;;;49.50;26.37;;;8.90;99.90;;;;;;5040768;28;20184;-83
2023/04/16 05:30:43;;;;;;;54.10;26.63;;;8.90;99.90;;;;;;5039724;28;20278;-83
2023/04/16 05:33:08;;;;;;;51.87;26.93;;;8.80;99.90;;;;;;5038933;28;20605;-83
2023/04/16 05:35:34;;;;;;;54.57;28.07;;;8.90;99.90;;;;;;5038724;28;20176;-84
2023/04/16 05:38:00;;;;;;;52.77;28.17;;;8.80;99.90;;;;;;5039516;28;20521;-83
2023/04/16 05:40:25;;;;;;;49.73;26.37;;;8.80;99.90;;;;;;5039532;28;20172;-84
2023/04/16 05:42:51;;;;;;;48.10;28.47;;;8.80;99.90;;;;;;5040252;28;20183;-84
2023/04/16 05:45:16;;;;;;;47.13;27.63;;;8.90;99.90;;;;;;5038896;28;20671;-84
2023/04/16 05:47:42;;;;;;;46.97;26.23;;;8.90;99.90;;;;;;5040083;28;20213;-84
2023/04/16 05:50:08;;;;;;;52.93;27.10;;;8.90;99.90;;;;;;5040135;28;20176;-83
2023/04/16 05:52:34;;;;;;;54.33;29.63;;;8.90;99.90;;;;;;5037713;28;20298;-83
2023/04/16 05:55:00;;;;;;;58.80;28.40;;;8.90;99.90;;;;;;5039364;28;20168;-82
2023/04/16 05:57:29;;;;;;;51.93;28.90;;;8.80;99.90;;;;;;5037524;28;20231;-83
2023/04/16 05:59:55;;;;;;;49.50;27.10;;;8.90;99.90;;;;;;5039004;28;20175;-81
2023/04/16 06:02:20;;;;;;;54.47;28.07;;;8.90;99.90;;;;;;5036379;28;20180;-81
2023/04/16 06:04:46;;;;;;;53.27;27.30;;;8.90;99.90;;;;;;5037956;28;20192;-81
2023/04/16 06:07:11;;;;;;;50.10;27.63;;;8.90;99.90;;;;;;5038709;28;20585;-81
2023/04/16 06:09:37;;;;;;;55.63;23.73;;;8.90;99.90;;;;;;5037848;28;20182;-82
2023/04/16 06:12:03;;;;;;;42.90;22.37;;;8.90;99.90;;;;;;5038289;28;20207;-82
2023/04/16 06:14:28;;;;;;;50.80;23.60;;;8.90;99.90;;;;;;5038065;28;20192;-81
2023/04/16 06:16:54;;;;;;;48.03;22.20;;;9.00;99.90;;;;;;5053440;28;20163;-82
2023/04/16 06:19:19;;;;;;;42.80;20.57;;;8.90;99.90;;;;;;5055243;28;20161;-83
2023/04/16 06:21:45;;;;;;;45.87;20.33;;;8.90;99.90;;;;;;5043065;28;20180;-83
2023/04/16 06:24:12;;;;;;;37.93;19.20;;;8.90;99.90;;;;;;5038134;28;20279;-82
2023/04/16 06:26:37;;;;;;;38.13;20.07;;;8.90;99.90;;;;;;5032214;28;20245;-81
2023/04/16 06:29:03;;;;;;;35.50;17.27;;;8.90;99.90;;;;;;5036844;28;20254;-81
2023/04/16 06:31:29;;;;;;;39.40;19.13;;;8.90;99.90;;;;;;5037749;28;20695;-82
2023/04/16 06:33:55;;;;;;;33.47;18.93;;;8.90;99.90;;;;;;5036684;28;20219;-82
2023/04/16 06:36:20;;;;;;;36.60;20.07;;;8.90;99.90;;;;;;5035771;28;20249;-81
2023/04/16 06:38:46;;;;;;;34.33;18.73;;;8.90;99.90;;;;;;5037343;28;20250;-82
2023/04/16 06:41:13;;;;;;;37.77;19.73;;;8.90;99.90;;;;;;5041626;28;20598;-80
2023/04/16 06:43:38;;;;;;;36.57;19.90;;;8.80;99.90;;;;;;5043456;28;20196;-80
2023/04/16 06:46:04;;;;;;;36.00;19.70;;;8.90;99.90;;;;;;5041901;28;20176;-80
2023/04/16 06:48:30;;;;;;;37.03;19.30;;;8.80;99.90;;;;;;5042618;28;20168;-81
2023/04/16 06:50:56;;;;;;;31.57;18.83;;;8.90;99.90;;;;;;5041883;28;20207;-80
2023/04/16 06:53:22;;;;;;;33.87;19.50;;;8.80;99.90;;;;;;5043882;28;20200;-81
2023/04/16 06:55:47;;;;;;;35.83;20.10;;;8.90;99.90;;;;;;5041629;28;20214;-80
2023/04/16 06:58:13;;;;;;;39.07;20.13;;;8.80;99.90;;;;;;5042754;28;20172;-80
2023/04/16 07:00:38;;;;;;;34.23;20.23;;;8.80;99.90;;;;;;5042521;28;20176;-80
2023/04/16 07:03:04;;;;;;;33.37;19.50;;;8.90;99.90;;;;;;5043463;28;20570;-80
2023/04/16 07:05:30;;;;;;;34.13;19.83;;;8.90;99.90;;;;;;5042501;28;20182;-81
2023/04/16 07:07:56;;;;;;;32.13;19.23;;;8.90;99.90;;;;;;5041690;28;20177;-80
2023/04/16 07:10:22;;;;;;;31.53;19.33;;;8.90;99.90;;;;;;5041959;28;20737;-79
2023/04/16 07:12:47;;;;;;;32.10;18.97;;;9.00;99.90;;;;;;5042257;28;20176;-80
2023/04/16 07:15:13;;;;;;;32.60;19.87;;;9.00;99.90;;;;;;5042319;28;20656;-81
2023/04/16 07:17:39;;;;;;;32.00;19.40;;;9.00;99.90;;;;;;5043199;28;20172;-80
2023/04/16 07:20:05;;;;;;;32.33;18.90;;;9.00;99.90;;;;;;5041400;28;20238;-81
2023/04/16 07:22:30;;;;;;;30.10;18.63;;;9.10;99.90;;;;;;5043031;28;20240;-81
2023/04/16 07:24:56;;;;;;;31.43;19.80;;;9.10;99.90;;;;;;5044669;28;20192;-80
2023/04/16 07:27:22;;;;;;;34.10;20.17;;;9.20;99.90;;;;;;5044472;28;20179;-81
2023/04/16 07:29:49;;;;;;;31.87;19.70;;;9.20;99.90;;;;;;5041378;28;20168;-80
2023/04/16 07:32:14;;;;;;;32.90;19.40;;;9.20;99.90;;;;;;5041742;28;20196;-81
2023/04/16 07:34:40;;;;;;;36.47;20.13;;;9.20;99.90;;;;;;5040758;28;20415;-80
2023/04/16 07:37:05;;;;;;;31.77;20.30;;;9.30;99.90;;;;;;5041974;28;20165;-81
2023/04/16 07:39:31;;;;;;;29.33;19.80;;;9.30;99.90;;;;;;5039909;28;20168;-81
2023/04/16 07:41:56;;;;;;;29.93;19.83;;;9.40;99.90;;;;;;5038634;28;20180;-79
2023/04/16 07:44:22;;;;;;;29.70;19.80;;;9.40;99.90;;;;;;5040042;28;20200;-80
2023/04/16 07:46:47;;;;;;;31.80;19.27;;;9.40;99.90;;;;;;5040107;28;20180;-80
2023/04/16 07:49:13;;;;;;;32.83;21.23;;;9.50;99.90;;;;;;5040589;28;20176;-80
2023/04/16 07:51:39;;;;;;;29.13;19.13;;;9.70;99.90;;;;;;5040190;28;20497;-79
2023/04/16 07:54:04;;;;;;;29.30;19.47;;;9.60;99.90;;;;;;5040645;28;20196;-80
2023/04/16 07:56:30;;;;;;;28.03;18.23;;;9.60;99.90;;;;;;5041006;28;20176;-80
2023/04/16 07:58:55;;;;;;;27.40;18.03;;;9.70;99.90;;;;;;5040149;28;20222;-80
2023/04/16 08:01:21;;;;;;;28.30;17.33;;;9.70;99.90;;;;;;5040977;28;20176;-81
2023/04/16 08:03:46;;;;;;;31.67;19.87;;;9.80;99.90;;;;;;5039659;28;20195;-81
2023/04/16 08:06:12;;;;;;;30.20;18.83;;;9.70;99.90;;;;;;5039892;28;20241;-82
2023/04/16 08:08:38;;;;;;;26.33;17.00;;;9.80;99.90;;;;;;5040471;28;20180;-81
2023/04/16 08:11:03;;;;;;;29.87;18.30;;;9.80;99.90;;;;;;5039837;28;20302;-81
2023/04/16 08:13:29;;;;;;;26.27;18.37;;;9.90;99.90;;;;;;5048602;28;20187;-81
2023/04/16 08:15:54;;;;;;;31.30;18.27;;;9.90;99.90;;;;;;5054862;28;20199;-81
2023/04/16 08:18:20;;;;;;;28.20;16.93;;;10.00;99.90;;;;;;5053368;28;20180;-82
2023/04/16 08:20:46;;;;;;;27.13;16.47;;;9.90;99.90;;;;;;5053742;28;20263;-82
2023/04/16 08:23:11;;;;;;;23.03;16.43;;;9.90;99.90;;;;;;5053824;28;20204;-82
2023/04/16 08:25:37;;;;;;;27.80;16.93;;;10.00;99.90;;;;;;5045677;28;20191;-82
2023/04/16 08:28:02;;;;;;;26.60;17.20;;;10.00;99.90;;;;;;5040313;28;20644;-82
2023/04/16 08:30:28;;;;;;;27.47;16.57;;;10.00;99.90;;;;;;5040406;28;20559;-82
2023/04/16 08:32:53;;;;;;;26.93;16.77;;;10.00;99.90;;;;;;5040419;28;20187;-81
2023/04/16 08:35:19;;;;;;;28.93;17.87;;;10.10;99.90;;;;;;5041200;28;20169;-80
2023/04/16 08:37:45;;;;;;;29.73;17.80;;;10.10;99.90;;;;;;5039931;28;20173;-82
2023/04/16 08:40:10;;;;;;;25.30;16.17;;;10.20;99.90;;;;;;5040001;28;20176;-82
2023/04/16 08:42:54;;;;;;;25.90;16.03;;;10.20;99.90;;;;;;5040152;28;20179;-81
2023/04/16 08:45:20;;;;;;;25.97;16.20;;;10.30;99.90;;;;;;5041116;28;20155;-82
2023/04/16 08:47:47;;;;;;;27.23;17.43;;;10.30;99.90;;;;;;5040639;28;20168;-82
2023/04/16 08:50:14;;;;;;;27.03;16.83;;;10.40;99.90;;;;;;5040805;28;20172;-82
2023/04/16 08:52:51;;;;;;;27.00;16.03;;;10.50;99.90;;;;;;5039179;28;20176;-83
2023/04/16 08:55:31;;;;;;;20.83;15.53;;;10.60;99.90;;;;;;5040036;28;20164;-82
2023/04/16 08:58:02;;;;;;;28.50;17.50;;;10.70;99.90;;;;;;5040988;28;20531;-81
2023/04/16 09:00:30;;;;;;;24.30;16.57;;;10.80;99.90;;;;;;5039701;28;20264;-82
2023/04/16 09:02:55;;;;;;;21.73;15.10;;;10.80;99.90;;;;;;5039332;28;20279;-82
2023/04/16 09:05:24;;;;;;;26.83;16.70;;;10.90;99.90;;;;;;5038366;28;20265;-82
2023/04/16 09:07:51;;;;;;;22.20;15.27;;;11.00;99.90;;;;;;5040714;28;20176;-82
2023/04/16 09:10:17;;;;;;;21.77;15.27;;;11.10;99.90;;;;;;5037997;28;20263;-80
2023/04/16 09:12:43;;;;;;;23.77;14.73;;;11.10;99.90;;;;;;5037995;28;20227;-82
2023/04/16 09:15:10;;;;;;;21.57;14.17;;;11.10;99.90;;;;;;5039545;28;20169;-82
2023/04/16 09:17:36;;;;;;;22.43;14.60;;;11.10;99.90;;;;;;5039978;28;20172;-82
2023/04/16 09:20:04;;;;;;;22.47;14.53;;;11.20;99.90;;;;;;5040752;28;20355;-82
2023/04/16 09:22:30;;;;;;;22.20;14.60;;;11.30;99.90;;;;;;5038695;28;20184;-82
2023/04/16 09:24:56;;;;;;;20.57;14.90;;;11.40;99.90;;;;;;5037747;28;20196;-82
2023/04/16 09:27:22;;;;;;;25.37;15.60;;;11.50;99.90;;;;;;5038243;28;20212;-82
2023/04/16 09:29:48;;;;;;;27.07;17.40;;;11.50;99.90;;;;;;5039726;28;20548;-82
2023/04/16 09:32:14;;;;;;;30.10;17.87;;;11.50;99.90;;;;;;5039114;28;20242;-81
2023/04/16 09:34:59;;;;;;;27.17;16.97;;;11.50;99.90;;;;;;5038677;28;20506;-82
2023/04/16 09:37:29;;;;;;;25.10;17.43;;;11.60;99.90;;;;;;5037216;28;20196;-81
2023/04/16 09:39:58;;;;;;;30.07;16.83;;;11.70;99.90;;;;;;5036141;28;20160;-82
2023/04/16 09:42:28;;;;;;;27.87;16.47;;;11.80;99.90;;;;;;5038160;28;20177;-82
2023/04/16 09:44:54;;;;;;;23.30;15.03;;;11.80;99.90;;;;;;5036493;28;20568;-82
2023/04/16 09:47:21;;;;;;;21.70;15.43;;;11.70;99.90;;;;;;5038661;28;20179;-82
2023/04/16 09:49:46;;;;;;;20.17;13.77;;;11.70;99.90;;;;;;5038774;28;20540;-83
2023/04/16 09:52:16;;;;;;;18.63;13.77;;;11.80;99.90;;;;;;5037942;28;20200;-83
2023/04/16 09:54:46;;;;;;;20.97;14.07;;;11.80;99.90;;;;;;5035534;28;20193;-83
2023/04/16 09:57:12;;;;;;;20.33;14.37;;;11.80;99.90;;;;;;5035489;28;20255;-82
2023/04/16 09:59:37;;;;;;;21.33;14.10;;;11.80;99.90;;;;;;5037271;28;20192;-83
2023/04/16 10:02:06;;;;;;;22.90;14.23;;;11.90;99.90;;;;;;5036871;28;20172;-83
2023/04/16 10:04:44;;;;;;;22.70;14.87;;;12.00;99.90;;;;;;5036568;28;20192;-83
2023/04/16 10:07:11;;;;;;;21.70;14.63;;;12.10;99.90;;;;;;5034835;28;20200;-83
2023/04/16 10:09:38;;;;;;;22.20;15.30;;;12.10;99.90;;;;;;5036539;28;20239;-83
2023/04/16 10:12:04;;;;;;;22.93;14.03;;;12.20;99.90;;;;;;5035976;28;20208;-83
2023/04/16 10:14:30;;;;;;;17.97;13.47;;;12.20;99.90;;;;;;5037703;28;20234;-83
2023/04/16 10:16:56;;;;;;;19.20;13.40;;;12.20;99.90;;;;;;5036861;28;20168;-83
2023/04/16 10:19:23;;;;;;;18.17;12.40;;;12.20;99.90;;;;;;5037255;28;20209;-84
2023/04/16 10:21:49;;;;;;;16.43;12.10;;;12.30;99.90;;;;;;5038059;28;20176;-83
2023/04/16 10:24:16;;;;;;;14.73;11.70;;;12.30;99.90;;;;;;5036890;28;20224;-82
2023/04/16 10:26:43;;;;;;;16.17;11.43;;;12.40;99.90;;;;;;5035131;28;20187;-83
2023/04/16 10:29:11;;;;;;;16.53;11.53;;;12.50;99.90;;;;;;5035811;28;20176;-83
2023/04/16 10:31:37;;;;;;;15.17;10.93;;;12.60;99.90;;;;;;5034999;28;20207;-83
2023/04/16 10:34:04;;;;;;;16.43;11.67;;;12.60;99.90;;;;;;5034445;28;20196;-82
2023/04/16 10:36:34;;;;;;;14.53;11.33;;;12.80;99.90;;;;;;5035103;28;20172;-82
2023/04/16 10:39:00;;;;;;;14.07;11.10;;;12.90;99.90;;;;;;5036794;28;20180;-83
2023/04/16 10:41:26;;;;;;;16.20;11.27;;;12.90;99.90;;;;;;5034786;28;20172;-83
2023/04/16 10:43:52;;;;;;;15.07;11.23;;;13.00;99.90;;;;;;5034315;28;20652;-83
2023/04/16 10:46:18;;;;;;;15.87;11.57;;;13.00;99.90;;;;;;5036844;28;20682;-83
2023/04/16 10:48:44;;;;;;;17.07;11.27;;;13.00;99.90;;;;;;5034509;28;20255;-83
2023/04/16 10:51:30;;;;;;;19.30;12.03;;;12.90;99.90;;;;;;5034492;28;20216;-83
2023/04/16 10:54:07;;;;;;;19.27;11.03;;;13.00;99.90;;;;;;5037531;28;20291;-82
2023/04/16 10:56:35;;;;;;;15.77;11.10;;;13.00;99.90;;;;;;5035283;28;20172;-83
2023/04/16 10:59:04;;;;;;;14.10;10.87;;;13.00;99.90;;;;;;5035188;28;20172;-83
2023/04/16 11:01:32;;;;;;;17.33;11.70;;;13.10;99.90;;;;;;5035644;28;20687;-83
2023/04/16 11:04:00;;;;;;;18.10;11.30;;;13.00;99.90;;;;;;5038730;28;20184;-84
2023/04/16 11:06:27;;;;;;;14.17;10.97;;;13.00;99.90;;;;;;5037934;28;20295;-82
2023/04/16 11:08:53;;;;;;;18.20;11.53;;;13.10;99.90;;;;;;5038502;28;20168;-82
2023/04/16 11:11:20;;;;;;;18.37;13.30;;;13.10;99.90;;;;;;5036123;28;20575;-82
2023/04/16 11:13:46;;;;;;;16.43;13.10;;;13.10;99.90;;;;;;5034102;28;20195;-82
2023/04/16 11:16:13;;;;;;;16.27;11.60;;;13.00;99.90;;;;;;5035198;28;20176;-82
2023/04/16 11:18:40;;;;;;;13.83;10.63;;;13.20;99.90;;;;;;5034633;28;20176;-82
2023/04/16 11:21:10;;;;;;;15.67;11.00;;;13.40;99.90;;;;;;5034646;28;20544;-83
2023/04/16 11:23:50;;;;;;;13.10;10.50;;;13.30;99.90;;;;;;5036828;28;20196;-82
2023/04/16 11:26:23;;;;;;;14.63;10.17;;;13.30;99.90;;;;;;5039630;28;20183;-82
2023/04/16 11:28:48;;;;;;;15.30;10.53;;;13.30;99.90;;;;;;5039962;28;20179;-83
2023/04/16 11:31:14;;;;;;;14.93;10.40;;;13.30;99.90;;;;;;5038036;28;20196;-82
2023/04/16 11:33:41;;;;;;;15.20;10.40;;;13.40;99.90;;;;;;5039557;28;20227;-82
2023/04/16 11:36:06;;;;;;;12.80;9.77;;;13.40;99.90;;;;;;5039236;28;20606;-82
2023/04/16 11:38:35;;;;;;;15.57;10.13;;;13.50;99.90;;;;;;5039579;28;20310;-82
2023/04/16 11:41:00;;;;;;;11.10;9.10;;;13.50;99.90;;;;;;5037476;28;20622;-82
2023/04/16 11:43:26;;;;;;;11.20;9.00;;;13.40;99.90;;;;;;5039272;28;20285;-82
2023/04/16 11:45:57;;;;;;;12.17;8.87;;;13.40;99.90;;;;;;5037814;28;20203;-82
2023/04/16 11:48:22;;;;;;;14.20;9.83;;;13.60;99.90;;;;;;5040689;28;20218;-82
2023/04/16 11:50:57;;;;;;;12.77;9.77;;;13.50;99.90;;;;;;5040379;28;20196;-82
2023/04/16 11:53:23;;;;;;;11.60;9.40;;;13.50;99.90;;;;;;5040149;28;20279;-82
2023/04/16 11:55:49;;;;;;;14.40;11.03;;;13.50;99.90;;;;;;5038674;28;20196;-82
2023/04/16 11:58:15;;;;;;;15.07;9.40;;;13.60;99.90;;;;;;5039816;28;20172;-81
2023/04/16 12:00:41;;;;;;;14.57;10.07;;;13.70;99.90;;;;;;5037771;28;20210;-81
2023/04/16 12:03:07;;;;;;;12.17;9.30;;;13.70;99.90;;;;;;5037608;28;20200;-81
2023/04/16 12:05:37;;;;;;;13.07;9.57;;;13.90;99.90;;;;;;5039591;28;20176;-81
2023/04/16 12:08:05;;;;;;;11.63;8.93;;;14.20;99.90;;;;;;5041170;28;20167;-84
2023/04/16 12:10:34;;;;;;;13.57;9.53;;;14.10;99.90;;;;;;5040554;28;20208;-81
2023/04/16 12:13:14;;;;;;;12.23;9.30;;;14.20;99.90;;;;;;5048040;28;20251;-81
2023/04/16 12:15:57;;;;;;;12.97;8.73;;;14.30;99.90;;;;;;5052918;28;20175;-81
2023/04/16 12:18:25;;;;;;;13.17;9.87;;;14.50;99.90;;;;;;5047382;28;20168;-81
2023/04/16 12:20:51;;;;;;;10.47;8.63;;;14.50;99.90;;;;;;5037057;28;20573;-81
2023/04/16 12:23:28;;;;;;;14.70;9.47;;;14.50;99.90;;;;;;5038082;28;20200;-83
2023/04/16 12:25:55;;;;;;;10.97;8.50;;;14.50;99.90;;;;;;5037065;28;20189;-82
2023/04/16 12:28:32;;;;;;;11.97;9.03;;;14.40;99.90;;;;;;5036181;28;20183;-82
2023/04/16 12:30:58;;;;;;;12.47;9.10;;;14.40;99.90;;;;;;5037032;28;20188;-82